createdAt,value
2023-03-05T00:01:35.913Z,35.78
2023-03-05T00:04:06.417Z,35.80
2023-03-05T00:06:34.830Z,35.85
2023-03-05T00:09:03.503Z,35.74
2023-03-05T00:11:33.417Z,35.78
2023-03-05T00:14:04.851Z,35.75
2023-03-05T00:16:33.531Z,35.99
2023-03-05T00:19:02.680Z,35.83
2023-03-05T00:21:32.302Z,35.88
2023-03-05T00:24:02.259Z,35.92
2023-03-05T00:26:31.482Z,36.00
2023-03-05T00:28:59.576Z,36.04
2023-03-05T00:31:31.363Z,36.08
2023-03-05T00:34:01.996Z,36.02
2023-03-05T00:36:30.946Z,35.98
2023-03-05T00:38:59.474Z,35.93
2023-03-05T00:41:28.009Z,36.11
2023-03-05T00:43:57.015Z,36.10
2023-03-05T00:46:27.464Z,36.07
2023-03-05T00:48:58.226Z,36.01
2023-03-05T00:51:26.653Z,36.20
2023-03-05T00:53:55.416Z,36.08
2023-03-05T00:56:23.940Z,36.02
2023-03-05T00:58:53.243Z,36.09
2023-03-05T01:01:21.463Z,36.05
2023-03-05T01:03:50.240Z,36.05
2023-03-05T01:06:20.555Z,36.10
2023-03-05T01:08:48.644Z,36.03
2023-03-05T01:11:17.374Z,36.08
2023-03-05T01:13:45.364Z,36.17
2023-03-05T01:16:13.534Z,36.20
2023-03-05T01:18:43.018Z,36.14
2023-03-05T01:21:11.555Z,36.19
2023-03-05T01:23:41.009Z,36.16
2023-03-05T01:26:09.626Z,36.23
2023-03-05T01:28:38.606Z,36.36
2023-03-05T01:31:10.175Z,36.30
2023-03-05T01:33:39.204Z,36.38
2023-03-05T01:36:14.770Z,36.37
2023-03-05T01:38:45.222Z,36.36
2023-03-05T01:41:14.695Z,36.49
2023-03-05T01:43:44.270Z,36.31
2023-03-05T01:46:31.179Z,36.37
2023-03-05T01:49:25.636Z,36.38
2023-03-05T01:52:02.207Z,36.43
2023-03-05T01:54:35.355Z,36.29
2023-03-05T01:57:05.739Z,36.52
2023-03-05T01:59:34.492Z,36.39
2023-03-05T02:02:03.945Z,36.45
2023-03-05T02:04:38.102Z,36.48
2023-03-05T02:07:06.569Z,36.41
2023-03-05T02:09:39.305Z,36.38
2023-03-05T02:12:08.968Z,36.43
2023-03-05T02:14:37.736Z,36.36
2023-03-05T02:17:06.259Z,36.48
2023-03-05T02:19:48.457Z,36.51
2023-03-05T02:22:18.405Z,36.35
2023-03-05T02:24:46.464Z,36.45
2023-03-05T02:27:18.656Z,36.53
2023-03-05T02:29:47.717Z,36.38
2023-03-05T02:32:18.236Z,36.38
2023-03-05T02:34:46.321Z,36.38
2023-03-05T02:37:14.413Z,36.49
2023-03-05T02:39:43.939Z,36.42
2023-03-05T02:42:11.993Z,36.58
2023-03-05T02:44:40.023Z,36.35
2023-03-05T02:47:08.468Z,36.39
2023-03-05T02:49:36.662Z,36.51
2023-03-05T02:52:05.106Z,36.47
2023-03-05T02:54:33.149Z,36.33
2023-03-05T02:57:02.604Z,36.41
2023-03-05T02:59:30.860Z,36.49
2023-03-05T03:01:59.064Z,36.40
2023-03-05T03:04:27.231Z,36.58
2023-03-05T03:06:55.305Z,36.53
2023-03-05T03:09:23.413Z,36.51
2023-03-05T03:11:51.449Z,36.47
2023-03-05T03:14:20.989Z,36.61
2023-03-05T03:16:49.381Z,36.55
2023-03-05T03:19:17.676Z,36.40
2023-03-05T03:21:45.685Z,36.52
2023-03-05T03:24:13.732Z,36.37
2023-03-05T03:26:41.773Z,36.51
2023-03-05T03:29:09.828Z,36.43
2023-03-05T03:31:41.284Z,36.54
2023-03-05T03:34:09.312Z,36.52
2023-03-05T03:36:37.344Z,36.47
2023-03-05T03:39:06.609Z,36.47
2023-03-05T03:41:34.680Z,36.46
2023-03-05T03:44:04.869Z,36.20
2023-03-05T03:46:33.958Z,36.50
2023-03-05T03:49:03.728Z,36.35
2023-03-05T03:51:31.918Z,36.53
2023-03-05T03:54:00.668Z,36.27
2023-03-05T03:56:28.788Z,36.47
2023-03-05T03:58:56.849Z,36.57
2023-03-05T04:01:25.145Z,36.40
2023-03-05T04:03:53.328Z,36.48
2023-03-05T04:06:22.849Z,36.44
2023-03-05T04:08:51.125Z,36.37
2023-03-05T04:11:19.813Z,36.67
2023-03-05T04:13:48.234Z,36.62
2023-03-05T04:16:16.904Z,36.44
2023-03-05T04:18:44.955Z,36.59
2023-03-05T04:21:13.337Z,36.71
2023-03-05T04:23:42.866Z,36.37
2023-03-05T04:26:11.015Z,36.63
2023-03-05T04:28:39.173Z,36.68
2023-03-05T04:31:07.634Z,36.50
2023-03-05T04:33:35.795Z,36.54
2023-03-05T04:36:03.872Z,36.86
2023-03-05T04:38:31.916Z,36.63
2023-03-05T04:41:01.412Z,36.72
2023-03-05T04:43:29.450Z,36.69
2023-03-05T04:45:57.591Z,36.92
2023-03-05T04:48:25.724Z,36.99
2023-03-05T04:50:53.870Z,37.00
2023-03-05T04:53:22.038Z,36.92
2023-03-05T04:55:54.464Z,36.82
2023-03-05T04:58:24.303Z,36.64
2023-03-05T05:00:52.796Z,36.63
2023-03-05T05:03:20.912Z,36.70
2023-03-05T05:05:56.179Z,36.42
2023-03-05T05:08:24.312Z,36.50
2023-03-05T05:11:00.322Z,36.46
2023-03-05T05:13:32.950Z,36.28
2023-03-05T05:16:01.347Z,36.31
2023-03-05T05:18:29.442Z,36.18
2023-03-05T05:20:58.415Z,36.17
2023-03-05T05:23:26.520Z,36.09
2023-03-05T05:25:58.833Z,35.88
2023-03-05T05:28:27.585Z,35.86
2023-03-05T05:30:58.113Z,35.79
2023-03-05T05:33:26.590Z,35.70
2023-03-05T05:35:54.710Z,35.71
2023-03-05T05:38:22.854Z,35.58
2023-03-05T05:40:50.990Z,35.51
2023-03-05T05:43:19.097Z,35.65
2023-03-05T05:45:47.262Z,35.61
2023-03-05T05:48:16.954Z,35.56
2023-03-05T05:50:45.100Z,35.56
2023-03-05T05:53:13.218Z,35.57
2023-03-05T05:55:41.446Z,35.46
2023-03-05T05:58:09.464Z,35.59
2023-03-05T06:00:37.607Z,35.54
2023-03-05T06:03:05.835Z,35.42
2023-03-05T06:05:35.689Z,35.23
2023-03-05T06:08:03.908Z,35.17
2023-03-05T06:10:32.016Z,35.15
2023-03-05T06:13:00.178Z,35.16
2023-03-05T06:15:28.267Z,35.24
2023-03-05T06:17:56.316Z,35.23
2023-03-05T06:20:24.542Z,35.26
2023-03-05T06:22:53.973Z,35.36
2023-03-05T06:25:22.040Z,35.47
2023-03-05T06:27:50.214Z,35.48
2023-03-05T06:30:18.538Z,35.39
2023-03-05T06:32:46.801Z,35.44
2023-03-05T06:35:14.924Z,35.45
2023-03-05T06:37:42.955Z,35.55
2023-03-05T06:40:14.161Z,35.69
2023-03-05T06:42:42.283Z,35.80
2023-03-05T06:45:11.808Z,35.97
2023-03-05T06:47:39.945Z,35.88
2023-03-05T06:50:08.856Z,35.88
2023-03-05T06:52:38.822Z,35.85
2023-03-05T06:55:07.289Z,35.88
2023-03-05T06:57:37.779Z,35.95
2023-03-05T07:00:10.173Z,35.82
2023-03-05T07:02:38.540Z,35.79
2023-03-05T07:05:07.576Z,35.82
2023-03-05T07:07:36.157Z,35.86
2023-03-05T07:10:07.371Z,35.77
2023-03-05T07:12:38.750Z,35.84
2023-03-05T07:15:08.006Z,35.63
2023-03-05T07:17:36.233Z,35.81
2023-03-05T07:20:05.277Z,35.87
2023-03-05T07:22:33.792Z,35.99
2023-03-05T07:25:01.886Z,35.84
2023-03-05T07:27:30.027Z,35.94
2023-03-05T07:29:59.660Z,36.00
2023-03-05T07:32:27.779Z,36.05
2023-03-05T07:34:55.877Z,36.04
2023-03-05T07:37:23.971Z,35.97
2023-03-05T07:39:52.105Z,36.04
2023-03-05T07:42:20.393Z,36.00
2023-03-05T07:44:48.751Z,35.90
2023-03-05T07:47:18.227Z,36.04
2023-03-05T07:49:46.365Z,36.14
2023-03-05T07:52:14.445Z,36.19
2023-03-05T07:54:42.968Z,36.06
2023-03-05T07:57:13.339Z,36.15
2023-03-05T07:59:41.570Z,36.11
2023-03-05T08:02:11.917Z,36.17
2023-03-05T08:04:43.129Z,36.19
2023-03-05T08:07:11.290Z,36.16
2023-03-05T08:09:39.501Z,36.08
2023-03-05T08:12:09.944Z,36.17
2023-03-05T08:14:38.168Z,36.23
2023-03-05T08:17:07.048Z,36.30
2023-03-05T08:19:35.380Z,36.37
2023-03-05T08:22:05.726Z,36.34
2023-03-05T08:24:33.853Z,36.38
2023-03-05T08:27:01.960Z,36.37
2023-03-05T08:29:30.639Z,36.26
2023-03-05T08:32:04.446Z,36.37
2023-03-05T08:34:32.560Z,36.24
2023-03-05T08:37:00.988Z,36.27
2023-03-05T08:39:31.210Z,36.38
2023-03-05T08:41:59.339Z,36.39
2023-03-05T08:44:27.561Z,36.46
2023-03-05T08:46:55.740Z,36.34
2023-03-05T08:49:24.338Z,36.33
2023-03-05T08:51:52.439Z,36.32
2023-03-05T08:54:20.634Z,36.52
2023-03-05T08:56:50.635Z,36.48
2023-03-05T08:59:19.863Z,36.57
2023-03-05T09:01:48.007Z,36.48
2023-03-05T09:04:16.514Z,36.66
2023-03-05T09:06:44.637Z,36.69
2023-03-05T09:09:13.789Z,36.61
2023-03-05T09:11:41.984Z,36.52
2023-03-05T09:14:11.613Z,36.55
2023-03-05T09:16:41.045Z,36.60
2023-03-05T09:19:10.733Z,36.70
2023-03-05T09:21:39.535Z,36.65
2023-03-05T09:24:08.156Z,36.68
2023-03-05T09:26:36.504Z,36.78
2023-03-05T09:29:07.490Z,36.70
2023-03-05T09:31:37.178Z,36.88
2023-03-05T09:34:05.933Z,36.74
2023-03-05T09:36:34.324Z,36.87
2023-03-05T09:39:02.543Z,36.82
2023-03-05T09:41:38.930Z,37.00
2023-03-05T09:44:19.314Z,36.96
2023-03-05T09:46:54.898Z,36.95
2023-03-05T09:49:33.997Z,36.99
2023-03-05T09:52:08.789Z,36.96
2023-03-05T09:54:41.108Z,36.94
2023-03-05T09:57:17.374Z,36.86
2023-03-05T09:59:51.162Z,36.84
2023-03-05T10:02:26.633Z,36.95
2023-03-05T10:04:59.398Z,36.99
2023-03-05T10:07:31.284Z,36.89
2023-03-05T10:10:01.367Z,37.12
2023-03-05T10:12:42.310Z,37.08
2023-03-05T10:15:13.668Z,37.24
2023-03-05T10:17:59.272Z,37.02
2023-03-05T10:20:51.008Z,37.08
2023-03-05T10:23:30.989Z,37.24
2023-03-05T10:26:28.268Z,37.23
2023-03-05T10:29:09.355Z,37.05
2023-03-05T10:31:55.980Z,37.27
2023-03-05T10:34:41.846Z,37.13
2023-03-05T10:37:35.552Z,37.34
2023-03-05T10:40:16.727Z,37.52
2023-03-05T10:42:54.227Z,37.67
2023-03-05T10:45:25.562Z,37.53
2023-03-05T10:47:56.662Z,37.49
2023-03-05T10:50:28.080Z,37.45
2023-03-05T10:53:09.133Z,37.55
2023-03-05T10:55:37.467Z,37.62
2023-03-05T10:58:12.882Z,37.43
2023-03-05T11:00:41.691Z,37.39
2023-03-05T11:03:10.923Z,37.53
2023-03-05T11:05:46.387Z,37.50
2023-03-05T11:08:31.102Z,37.48
2023-03-05T11:11:14.895Z,37.53
2023-03-05T11:13:53.339Z,37.62
2023-03-05T11:16:23.792Z,37.50
2023-03-05T11:18:55.200Z,37.42
2023-03-05T11:21:28.640Z,37.49
2023-03-05T11:24:07.858Z,39.35
2023-03-05T11:26:35.986Z,40.18
2023-03-05T11:29:10.937Z,39.38
2023-03-05T11:31:40.359Z,39.40
2023-03-05T11:34:24.965Z,39.62
2023-03-05T11:37:07.046Z,39.66
2023-03-05T11:44:49.149Z,40.10
2023-03-05T11:47:28.740Z,40.03
2023-03-05T11:50:04.035Z,40.04
2023-03-05T11:52:43.826Z,39.71
2023-03-05T11:55:18.597Z,40.20
2023-03-05T11:57:53.516Z,39.92
2023-03-05T12:00:29.384Z,40.30
2023-03-05T12:03:00.948Z,40.25
2023-03-05T12:05:30.121Z,40.49
2023-03-05T12:08:03.361Z,40.66
2023-03-05T12:10:32.120Z,40.54
2023-03-05T12:13:09.049Z,41.82
2023-03-05T12:15:48.017Z,42.87
2023-03-05T12:18:25.514Z,42.63
2023-03-05T12:21:03.768Z,41.48
2023-03-05T12:23:46.384Z,40.88
2023-03-05T12:26:14.853Z,40.61
2023-03-05T12:28:59.182Z,39.74
2023-03-05T12:31:37.741Z,39.97
2023-03-05T12:34:38.281Z,39.60
2023-03-05T12:37:10.694Z,39.11
2023-03-05T12:39:50.988Z,39.29
2023-03-05T12:42:44.958Z,39.64
2023-03-05T12:45:26.458Z,39.74
2023-03-05T12:48:27.677Z,39.74
2023-03-05T12:50:59.757Z,39.78
2023-03-05T12:53:27.925Z,40.99
2023-03-05T12:56:07.130Z,42.46
2023-03-05T12:58:40.607Z,42.63
2023-03-05T13:01:20.102Z,42.37
2023-03-05T13:03:51.546Z,42.59
2023-03-05T13:06:27.099Z,42.80
2023-03-05T13:09:00.453Z,42.34
2023-03-05T13:11:34.347Z,42.26
2023-03-05T13:14:06.536Z,41.99
2023-03-05T13:16:39.120Z,42.02
2023-03-05T13:19:17.826Z,41.61
2023-03-05T13:21:46.605Z,41.01
2023-03-05T13:24:18.268Z,40.70
2023-03-05T13:26:47.766Z,39.88
2023-03-05T13:29:17.456Z,39.97
2023-03-05T13:31:48.121Z,40.13
2023-03-05T13:34:19.659Z,40.15
2023-03-05T13:36:51.043Z,39.91
2023-03-05T13:39:23.156Z,40.25
2023-03-05T13:42:04.996Z,39.91
2023-03-05T13:44:34.583Z,39.98
2023-03-05T13:47:14.908Z,39.81
2023-03-05T13:49:43.114Z,39.85
2023-03-05T13:52:12.063Z,39.93
2023-03-05T13:54:41.662Z,39.84
2023-03-05T13:57:34.476Z,39.70
2023-03-05T14:00:02.733Z,39.69
2023-03-05T14:02:33.479Z,39.58
2023-03-05T14:05:02.033Z,39.54
2023-03-05T14:07:34.611Z,39.43
2023-03-05T14:10:03.822Z,39.47
2023-03-05T14:12:37.106Z,39.49
2023-03-05T14:15:07.308Z,39.41
2023-03-05T14:17:39.610Z,39.50
2023-03-05T14:20:19.083Z,39.47
2023-03-05T14:22:49.223Z,39.37
2023-03-05T14:25:29.751Z,39.30
2023-03-05T14:27:59.528Z,39.34
2023-03-05T14:30:28.955Z,39.31
2023-03-05T14:33:04.903Z,39.45
2023-03-05T14:35:34.194Z,39.23
2023-03-05T14:38:02.614Z,39.31
2023-03-05T14:40:32.992Z,39.20
2023-03-05T14:43:04.011Z,39.21
2023-03-05T14:45:34.651Z,39.25
2023-03-05T14:48:05.130Z,39.22
2023-03-05T14:50:35.849Z,39.22
2023-03-05T14:53:08.470Z,39.30
2023-03-05T14:55:38.438Z,39.39
2023-03-05T14:58:13.363Z,39.41
2023-03-05T15:00:42.184Z,39.24
2023-03-05T15:03:11.998Z,39.14
2023-03-05T15:05:40.583Z,39.24
2023-03-05T15:08:15.710Z,39.30
2023-03-05T15:10:44.406Z,39.16
2023-03-05T15:13:15.430Z,39.32
2023-03-05T15:15:45.021Z,39.14
2023-03-05T15:18:14.316Z,38.88
2023-03-05T15:20:42.502Z,39.10
2023-03-05T15:23:12.271Z,38.94
2023-03-05T15:25:40.693Z,39.01
2023-03-05T15:28:09.427Z,38.95
2023-03-05T15:30:41.303Z,38.82
2023-03-05T15:33:11.846Z,39.02
2023-03-05T15:35:40.724Z,39.07
2023-03-05T15:38:09.408Z,38.94
2023-03-05T15:40:37.744Z,38.92
2023-03-05T15:43:06.146Z,39.01
2023-03-05T15:45:34.218Z,38.90
2023-03-05T15:48:03.652Z,38.95
2023-03-05T15:50:31.834Z,38.94
2023-03-05T15:53:00.141Z,38.86
2023-03-05T15:55:28.663Z,38.96
2023-03-05T15:57:57.109Z,38.87
2023-03-05T16:00:30.715Z,38.74
2023-03-05T16:02:58.659Z,38.82
2023-03-05T16:05:28.222Z,38.75
2023-03-05T16:07:57.533Z,38.70
2023-03-05T16:10:27.788Z,38.91
2023-03-05T16:13:02.585Z,38.86
2023-03-05T16:15:33.052Z,38.81
2023-03-05T16:18:03.732Z,38.83
2023-03-05T16:20:33.397Z,38.87
2023-03-05T16:23:01.664Z,38.67
2023-03-05T16:25:30.722Z,38.84
2023-03-05T16:27:59.052Z,38.87
2023-03-05T16:30:27.178Z,38.76
2023-03-05T16:32:55.359Z,38.89
2023-03-05T16:35:23.612Z,38.96
2023-03-05T16:37:53.201Z,38.79
2023-03-05T16:40:21.374Z,38.86
2023-03-05T16:42:50.319Z,38.70
2023-03-05T16:45:18.543Z,38.72
2023-03-05T16:47:46.692Z,38.65
2023-03-05T16:50:14.920Z,38.67
2023-03-05T16:52:43.150Z,38.58
2023-03-05T16:55:15.861Z,38.56
2023-03-05T16:57:44.131Z,38.70
2023-03-05T17:00:13.495Z,38.47
2023-03-05T17:02:41.523Z,38.54
2023-03-05T17:05:09.914Z,38.57
2023-03-05T17:07:38.128Z,38.49
2023-03-05T17:10:07.515Z,38.50
2023-03-05T17:12:37.353Z,38.64
2023-03-05T17:15:06.704Z,38.62
2023-03-05T17:17:34.812Z,38.67
2023-03-05T17:20:03.610Z,38.65
2023-03-05T17:22:31.770Z,38.52
2023-03-05T17:24:59.932Z,38.46
2023-03-05T17:27:29.507Z,38.25
2023-03-05T17:29:59.323Z,38.41
2023-03-05T17:32:28.139Z,38.06
2023-03-05T17:34:56.851Z,38.07
2023-03-05T17:37:25.108Z,37.85
2023-03-05T17:39:53.704Z,37.82
2023-03-05T17:42:22.474Z,37.71
2023-03-05T17:44:50.781Z,37.54
2023-03-05T17:47:22.525Z,37.43
2023-03-05T17:49:51.485Z,37.23
2023-03-05T17:52:21.088Z,37.24
2023-03-05T17:54:50.492Z,37.19
2023-03-05T17:57:18.756Z,37.03
2023-03-05T17:59:47.348Z,36.78
2023-03-05T18:02:16.157Z,36.98
2023-03-05T18:04:47.937Z,36.75
2023-03-05T18:07:16.916Z,36.74
2023-03-05T18:09:48.523Z,36.43
2023-03-05T18:12:16.846Z,36.36
2023-03-05T18:14:45.233Z,36.35
2023-03-05T18:17:13.558Z,36.26
2023-03-05T18:19:42.207Z,36.28
2023-03-05T18:22:12.000Z,36.17
2023-03-05T18:24:40.241Z,36.07
2023-03-05T18:27:08.557Z,36.12
2023-03-05T18:29:36.942Z,36.17
2023-03-05T18:32:05.230Z,35.99
2023-03-05T18:34:33.433Z,36.13
2023-03-05T18:37:01.677Z,36.09
2023-03-05T18:39:33.512Z,35.96
2023-03-05T18:42:01.755Z,35.91
2023-03-05T18:44:29.911Z,35.86
2023-03-05T18:46:58.043Z,35.72
2023-03-05T18:49:27.373Z,35.69
2023-03-05T18:51:56.776Z,35.58
2023-03-05T18:54:25.202Z,35.46
2023-03-05T18:56:54.690Z,35.33
2023-03-05T18:59:22.906Z,35.33
2023-03-05T19:01:51.740Z,35.19
2023-03-05T19:04:19.947Z,35.03
2023-03-05T19:06:48.447Z,35.02
2023-03-05T19:09:58.991Z,35.07
2023-03-05T19:12:32.962Z,34.91
2023-03-05T19:15:04.088Z,34.85
2023-03-05T19:17:33.146Z,35.03
2023-03-05T19:20:06.305Z,35.02
2023-03-05T19:22:35.033Z,35.06
2023-03-05T19:25:03.656Z,35.14
2023-03-05T19:27:33.502Z,35.02
2023-03-05T19:30:01.757Z,34.97
2023-03-05T19:32:30.442Z,35.10
2023-03-05T19:34:59.573Z,34.92
2023-03-05T19:37:27.992Z,34.75
2023-03-05T19:39:56.480Z,34.95
2023-03-05T19:42:25.574Z,34.99
2023-03-05T19:44:55.547Z,34.60
2023-03-05T19:47:24.287Z,34.65
2023-03-05T19:49:52.874Z,34.66
2023-03-05T19:52:21.524Z,34.46
2023-03-05T19:54:49.700Z,34.34
2023-03-05T19:57:17.861Z,34.17
2023-03-05T19:59:46.771Z,34.29
2023-03-05T20:02:19.380Z,34.37
2023-03-05T20:04:47.877Z,34.23
2023-03-05T20:07:16.115Z,34.23
2023-03-05T20:09:44.237Z,34.16
2023-03-05T20:12:12.482Z,34.51
2023-03-05T20:14:40.556Z,34.37
2023-03-05T20:17:08.682Z,34.36
2023-03-05T20:19:38.230Z,34.46
2023-03-05T20:22:06.707Z,34.25
2023-03-05T20:24:34.709Z,34.38
2023-03-05T20:27:02.788Z,34.21
2023-03-05T20:29:30.938Z,34.31
2023-03-05T20:31:59.111Z,34.42
2023-03-05T20:34:27.259Z,34.32
2023-03-05T20:36:58.331Z,34.25
2023-03-05T20:39:26.485Z,34.25
2023-03-05T20:41:54.876Z,34.04
2023-03-05T20:44:22.991Z,34.17
2023-03-05T20:47:42.393Z,33.98
2023-03-05T20:50:12.171Z,34.01
2023-03-05T20:52:42.238Z,33.90
2023-03-05T20:55:12.168Z,33.84
2023-03-05T20:57:41.848Z,33.68
2023-03-05T21:00:12.061Z,33.40
2023-03-05T21:02:40.835Z,33.44
2023-03-05T21:05:09.433Z,33.52
2023-03-05T21:07:37.578Z,33.32
2023-03-05T21:10:08.242Z,33.53
2023-03-05T21:12:36.383Z,33.34
2023-03-05T21:15:05.179Z,33.37
2023-03-05T21:17:33.436Z,33.28
2023-03-05T21:20:02.371Z,33.56
2023-03-05T21:22:30.656Z,33.38
2023-03-05T21:25:21.925Z,33.35
2023-03-05T21:27:52.133Z,33.54
2023-03-05T21:30:21.611Z,33.61
2023-03-05T21:32:49.958Z,33.49
2023-03-05T21:35:19.295Z,33.78
2023-03-05T21:37:47.546Z,33.78
2023-03-05T21:40:18.956Z,33.68
2023-03-05T21:42:47.393Z,33.97
2023-03-05T21:45:17.658Z,33.82
2023-03-05T21:47:45.998Z,34.01
2023-03-05T21:50:15.606Z,33.85
2023-03-05T21:52:44.096Z,33.58
2023-03-05T21:55:15.352Z,33.62
2023-03-05T21:57:45.656Z,33.92
2023-03-05T22:00:17.481Z,33.63
2023-03-05T22:02:45.946Z,33.54
2023-03-05T22:05:15.590Z,33.59
2023-03-05T22:07:44.570Z,33.49
2023-03-05T22:10:14.651Z,33.45
2023-03-05T22:13:12.506Z,33.54
2023-03-05T22:15:44.151Z,33.38
2023-03-05T22:18:13.518Z,33.51
2023-03-05T22:20:42.042Z,33.58
2023-03-05T22:23:10.700Z,33.52
2023-03-05T22:25:39.072Z,33.59
2023-03-05T22:28:09.357Z,33.66
2023-03-05T22:30:38.170Z,33.70
2023-03-05T22:33:06.444Z,33.70
2023-03-05T22:35:34.701Z,33.80
2023-03-05T22:38:03.176Z,33.96
2023-03-05T22:40:31.314Z,33.75
2023-03-05T22:42:59.398Z,33.74
2023-03-05T22:45:29.686Z,33.71
2023-03-05T22:47:58.055Z,33.63
2023-03-05T22:50:26.210Z,33.75
2023-03-05T22:52:54.402Z,33.75
2023-03-05T22:55:23.174Z,33.72
2023-03-05T22:57:51.223Z,33.78
2023-03-05T23:00:23.556Z,33.71
2023-03-05T23:02:53.769Z,33.78
2023-03-05T23:05:22.145Z,34.00
2023-03-05T23:07:50.436Z,33.99
2023-03-05T23:10:20.165Z,33.90
2023-03-05T23:12:50.069Z,34.11
2023-03-05T23:15:24.803Z,33.88
2023-03-05T23:17:55.015Z,33.96
2023-03-05T23:20:25.844Z,33.95
2023-03-05T23:22:56.149Z,33.84
2023-03-05T23:25:25.987Z,33.98
2023-03-05T23:27:54.174Z,33.93
2023-03-05T23:30:23.211Z,34.04
2023-03-05T23:32:54.927Z,34.04
2023-03-05T23:35:25.032Z,33.92
2023-03-05T23:37:53.801Z,34.05
2023-03-05T23:40:23.653Z,34.08
2023-03-05T23:42:52.258Z,34.05
2023-03-05T23:45:22.180Z,33.88
2023-03-05T23:47:51.448Z,34.09
2023-03-05T23:50:23.384Z,33.97
2023-03-05T23:52:51.946Z,34.13
2023-03-05T23:55:22.963Z,34.02
2023-03-05T23:57:52.083Z,34.07
